Time;durP1;ratioP1;P1;durP2;ratioP2;P2;SDS_P1;SDS_P2;PMS_P1;PMS_P2;Temp;Humidity;BMP_temperature;BMP_pressure;BME280_temperature;BME280_humidity;BME280_pressure;Samples;Min_cycle;Max_cycle;Signal;HPM_P1;HPM_P2
2023/10/22 00:00:07;;;;;;;5.35;2.47;;;15.70;99.90;;;;;;5033761;28;20039;-76
2023/10/22 00:02:35;;;;;;;5.75;2.58;;;15.70;99.90;;;;;;5035131;28;20116;-76
2023/10/22 00:05:01;;;;;;;6.15;2.58;;;15.70;99.90;;;;;;5035247;28;20033;-75
2023/10/22 00:07:26;;;;;;;3.33;2.25;;;15.60;99.90;;;;;;5040784;28;20032;-76
2023/10/22 00:09:54;;;;;;;3.65;2.47;;;15.60;99.90;;;;;;5039102;28;20033;-76
2023/10/22 00:12:20;;;;;;;3.55;2.03;;;15.60;99.90;;;;;;5043871;27;20449;-75
2023/10/22 00:14:45;;;;;;;3.38;2.25;;;15.70;99.90;;;;;;5037801;28;20116;-75
2023/10/22 00:17:14;;;;;;;2.60;2.40;;;15.60;99.90;;;;;;5040085;28;20384;-75
2023/10/22 00:19:40;;;;;;;4.40;1.90;;;15.60;99.90;;;;;;5039710;28;20404;-76
2023/10/22 00:22:05;;;;;;;7.00;2.10;;;15.50;99.90;;;;;;5038283;28;20026;-75
2023/10/22 00:24:31;;;;;;;2.35;2.15;;;15.50;99.90;;;;;;5039212;28;20021;-75
2023/10/22 00:27:00;;;;;;;2.85;2.00;;;15.40;99.90;;;;;;5039756;28;20540;-75
2023/10/22 00:29:27;;;;;;;7.20;2.42;;;15.40;99.90;;;;;;5037872;28;20916;-75
2023/10/22 00:31:52;;;;;;;4.18;2.03;;;15.40;99.90;;;;;;5032158;28;20029;-76
2023/10/22 00:34:18;;;;;;;4.18;2.30;;;15.40;99.90;;;;;;5039167;28;20028;-75
2023/10/22 00:36:44;;;;;;;3.03;1.92;;;15.40;99.90;;;;;;5039494;28;20109;-75
2023/10/22 00:39:11;;;;;;;3.97;2.00;;;15.40;99.90;;;;;;5036545;28;20056;-75
2023/10/22 00:41:37;;;;;;;3.70;1.95;;;15.40;99.90;;;;;;5034567;28;20033;-76
2023/10/22 00:44:03;;;;;;;2.03;1.83;;;15.30;99.90;;;;;;5039303;28;20038;-76
2023/10/22 00:46:28;;;;;;;3.63;1.52;;;15.30;99.90;;;;;;5035208;28;20033;-75
2023/10/22 00:48:55;;;;;;;1.85;1.75;;;15.40;99.90;;;;;;5036423;28;20039;-82
2023/10/22 00:51:22;;;;;;;3.08;1.83;;;15.30;99.90;;;;;;5040331;28;20113;-83
2023/10/22 00:53:49;;;;;;;4.80;1.88;;;15.40;99.90;;;;;;5038594;28;20029;-83
2023/10/22 00:56:16;;;;;;;2.42;2.20;;;15.30;99.90;;;;;;5037744;28;20104;-84
2023/10/22 00:58:43;;;;;;;2.20;1.80;;;15.30;99.90;;;;;;5038940;28;20369;-82
2023/10/22 01:01:10;;;;;;;3.20;1.98;;;15.30;99.90;;;;;;5039392;28;20032;-83
2023/10/22 01:03:39;;;;;;;6.43;2.10;;;15.30;99.90;;;;;;5034324;28;20028;-83
2023/10/22 01:06:06;;;;;;;4.95;2.10;;;15.30;99.90;;;;;;5037392;28;20112;-83
2023/10/22 01:08:36;;;;;;;1.60;1.50;;;15.10;99.90;;;;;;5039810;28;20024;-84
2023/10/22 01:11:09;;;;;;;3.08;1.70;;;15.10;99.90;;;;;;5016823;28;20026;-84
2023/10/22 01:13:36;;;;;;;3.28;2.05;;;15.10;99.90;;;;;;5034253;28;20018;-82
2023/10/22 01:16:03;;;;;;;3.10;1.77;;;15.10;99.90;;;;;;5040367;28;20121;-84
2023/10/22 01:18:29;;;;;;;5.10;2.80;;;15.10;99.90;;;;;;5033429;28;20385;-83
2023/10/22 01:20:54;;;;;;;5.15;2.55;;;15.00;99.90;;;;;;5038230;28;20029;-82
2023/10/22 01:23:21;;;;;;;4.50;2.17;;;15.10;99.90;;;;;;5038663;28;20395;-83
2023/10/22 01:25:46;;;;;;;8.07;2.20;;;15.10;99.90;;;;;;5039662;28;20025;-84
2023/10/22 01:28:12;;;;;;;2.28;2.08;;;15.00;99.90;;;;;;5036542;28;20036;-83
2023/10/22 01:30:38;;;;;;;3.80;1.83;;;15.00;99.90;;;;;;5035927;28;20018;-83
2023/10/22 01:33:03;;;;;;;6.38;1.95;;;15.00;99.90;;;;;;5040775;28;20024;-83
2023/10/22 01:35:29;;;;;;;4.25;2.08;;;15.00;99.90;;;;;;5036414;28;20044;-82
2023/10/22 01:37:55;;;;;;;9.40;2.47;;;15.00;99.90;;;;;;5040849;28;20070;-84
2023/10/22 01:40:21;;;;;;;3.10;2.45;;;14.90;99.90;;;;;;5036662;28;20021;-83
2023/10/22 01:42:46;;;;;;;4.40;2.40;;;14.90;99.90;;;;;;5046675;28;20086;-84
2023/10/22 01:45:12;;;;;;;3.97;1.90;;;14.90;99.90;;;;;;5037795;28;20071;-84
2023/10/22 01:47:38;;;;;;;5.45;2.53;;;14.90;99.90;;;;;;5035916;28;20074;-83
2023/10/22 01:50:05;;;;;;;2.92;1.92;;;14.90;99.90;;;;;;5038091;28;20233;-83
2023/10/22 01:52:31;;;;;;;2.65;1.88;;;14.90;99.90;;;;;;5039646;28;20018;-83
2023/10/22 01:54:57;;;;;;;2.10;1.77;;;14.90;99.90;;;;;;5032020;28;20049;-83
2023/10/22 01:57:26;;;;;;;2.20;1.92;;;15.00;99.90;;;;;;5036623;28;20025;-83
2023/10/22 01:59:52;;;;;;;4.07;1.67;;;14.90;99.90;;;;;;5038223;28;20032;-83
2023/10/22 02:02:18;;;;;;;2.65;2.03;;;14.90;99.90;;;;;;5035968;28;20026;-84
2023/10/22 02:04:44;;;;;;;4.13;2.00;;;14.90;99.90;;;;;;5038900;28;20029;-83
2023/10/22 02:07:10;;;;;;;2.67;2.47;;;14.90;99.90;;;;;;5039436;28;20025;-84
2023/10/22 02:09:36;;;;;;;10.77;2.20;;;14.90;99.90;;;;;;5035546;28;20055;-83
2023/10/22 02:12:02;;;;;;;3.88;1.70;;;14.80;99.90;;;;;;5039390;28;20073;-83
2023/10/22 02:14:27;;;;;;;6.07;2.03;;;14.80;99.90;;;;;;5032388;28;20163;-83
2023/10/22 02:16:53;;;;;;;4.03;1.92;;;14.90;99.90;;;;;;5039874;28;20030;-83
2023/10/22 02:19:19;;;;;;;5.68;2.20;;;14.90;99.90;;;;;;5041017;28;20025;-83
2023/10/22 02:21:46;;;;;;;3.88;1.98;;;14.80;99.90;;;;;;5041986;28;20036;-83
2023/10/22 02:24:12;;;;;;;4.05;2.08;;;14.80;99.90;;;;;;5040154;28;21781;-83
2023/10/22 02:26:37;;;;;;;3.58;1.92;;;14.70;99.90;;;;;;5038439;28;20040;-83
2023/10/22 02:29:03;;;;;;;4.00;1.80;;;14.70;99.90;;;;;;5040590;28;20045;-84
2023/10/22 02:31:29;;;;;;;2.05;1.90;;;14.80;99.90;;;;;;5038241;28;20113;-84
2023/10/22 02:34:08;;;;;;;2.60;1.75;;;14.70;99.90;;;;;;5038450;28;20506;-84
2023/10/22 02:36:34;;;;;;;2.35;1.80;;;14.70;99.90;;;;;;5040054;28;20086;-83
2023/10/22 02:39:01;;;;;;;5.95;2.13;;;14.70;99.90;;;;;;5041723;28;20032;-82
2023/10/22 02:41:28;;;;;;;2.90;1.70;;;14.70;99.90;;;;;;5039130;28;20384;-83
2023/10/22 02:43:55;;;;;;;2.47;1.42;;;14.70;99.90;;;;;;5052940;27;20014;-83
2023/10/22 02:46:21;;;;;;;2.22;1.50;;;14.70;99.90;;;;;;5039438;28;20045;-83
2023/10/22 02:48:46;;;;;;;3.67;1.92;;;14.70;99.90;;;;;;5039595;28;20028;-83
2023/10/22 02:51:12;;;;;;;1.83;1.50;;;14.70;99.90;;;;;;5037329;28;20026;-82
2023/10/22 02:53:38;;;;;;;2.85;1.45;;;14.70;99.90;;;;;;5034697;28;20047;-76
2023/10/22 02:56:04;;;;;;;1.67;1.58;;;14.90;99.90;;;;;;5040083;28;20469;-76
2023/10/22 02:58:30;;;;;;;2.97;1.98;;;14.80;99.90;;;;;;5040470;28;20771;-76
2023/10/22 03:01:06;;;;;;;3.65;1.85;;;14.80;99.90;;;;;;5039423;28;20055;-76
2023/10/22 03:03:38;;;;;;;5.95;1.90;;;14.90;99.90;;;;;;5049848;28;20022;-75
2023/10/22 03:06:04;;;;;;;;;;;14.80;99.90;;;;;;5039918;28;20097;-75
2023/10/22 03:08:29;;;;;;;5.50;1.92;;;14.80;99.90;;;;;;5041691;28;19908;-76
2023/10/22 03:10:55;;;;;;;4.53;1.63;;;14.80;99.90;;;;;;5037040;28;20391;-76
2023/10/22 03:13:21;;;;;;;6.03;2.22;;;14.70;99.90;;;;;;5033571;28;20444;-76
2023/10/22 03:15:46;;;;;;;2.50;1.77;;;14.70;99.90;;;;;;5037120;28;20120;-76
2023/10/22 03:18:13;;;;;;;4.18;1.85;;;14.60;99.90;;;;;;5037620;27;20033;-83
2023/10/22 03:20:39;;;;;;;3.08;1.27;;;14.60;99.90;;;;;;5042021;28;20017;-83
2023/10/22 03:23:06;;;;;;;4.05;1.77;;;14.60;99.90;;;;;;5038763;28;20078;-84
2023/10/22 03:25:33;;;;;;;3.22;1.58;;;14.50;99.90;;;;;;5038263;28;20021;-82
2023/10/22 03:28:00;;;;;;;5.05;1.75;;;14.40;99.90;;;;;;5040769;28;20021;-82
2023/10/22 03:30:26;;;;;;;2.80;1.42;;;14.40;99.90;;;;;;5038278;28;20481;-83
2023/10/22 03:32:55;;;;;;;3.83;2.00;;;14.40;99.90;;;;;;5037850;28;20044;-83
2023/10/22 03:35:22;;;;;;;3.78;2.00;;;14.40;99.90;;;;;;5039402;28;20182;-82
2023/10/22 03:37:47;;;;;;;5.80;2.28;;;14.40;99.90;;;;;;5037248;28;20030;-83
2023/10/22 03:40:13;;;;;;;3.35;1.77;;;14.40;99.90;;;;;;5041160;28;20028;-82
2023/10/22 03:42:42;;;;;;;2.50;1.95;;;14.30;99.90;;;;;;5038812;28;20025;-75
2023/10/22 03:45:09;;;;;;;1.60;1.30;;;14.30;99.90;;;;;;5038998;28;20508;-75
2023/10/22 03:47:35;;;;;;;2.22;1.85;;;14.20;99.90;;;;;;5036216;28;20313;-76
2023/10/22 03:50:02;;;;;;;1.88;1.58;;;14.30;99.90;;;;;;5039028;28;20033;-75
2023/10/22 03:52:27;;;;;;;3.58;1.75;;;14.30;99.90;;;;;;5033677;28;20435;-76
2023/10/22 03:54:53;;;;;;;6.43;1.67;;;14.30;99.90;;;;;;5039297;28;20029;-75
2023/10/22 03:57:19;;;;;;;2.95;1.50;;;14.40;99.90;;;;;;5037992;28;20030;-76
2023/10/22 03:59:44;;;;;;;4.82;1.75;;;14.40;99.90;;;;;;5038006;28;20048;-75
2023/10/22 04:02:10;;;;;;;3.53;1.90;;;14.40;99.90;;;;;;5037827;28;20389;-76
2023/10/22 04:04:36;;;;;;;3.97;1.88;;;14.40;99.90;;;;;;5040492;28;20086;-75
2023/10/22 04:07:02;;;;;;;3.15;1.60;;;14.40;99.90;;;;;;5039568;28;20050;-75
2023/10/22 04:09:29;;;;;;;5.22;2.03;;;14.40;99.90;;;;;;5038305;28;20026;-76
2023/10/22 04:11:56;;;;;;;2.35;1.60;;;14.40;99.90;;;;;;5036762;28;20492;-75
2023/10/22 04:14:22;;;;;;;7.22;2.17;;;14.30;99.90;;;;;;5035801;28;20018;-76
2023/10/22 04:16:50;;;;;;;5.28;2.08;;;14.30;99.90;;;;;;5038239;28;20028;-76
2023/10/22 04:19:15;;;;;;;2.80;1.80;;;14.30;99.90;;;;;;5038731;28;20060;-75
2023/10/22 04:21:41;;;;;;;7.82;2.67;;;14.20;99.90;;;;;;5040235;28;20087;-76
2023/10/22 04:24:07;;;;;;;3.38;1.80;;;14.20;99.90;;;;;;5037682;28;20022;-76
2023/10/22 04:26:33;;;;;;;3.47;2.20;;;14.20;99.90;;;;;;5039992;28;20492;-76
2023/10/22 04:28:59;;;;;;;3.67;1.65;;;14.20;99.90;;;;;;5038635;28;20029;-76
2023/10/22 04:31:25;;;;;;;4.00;2.55;;;14.10;99.90;;;;;;5038285;28;20487;-76
2023/10/22 04:33:53;;;;;;;3.40;2.15;;;14.10;99.90;;;;;;5039155;28;20025;-76
2023/10/22 04:36:20;;;;;;;3.55;2.35;;;14.10;99.90;;;;;;5033601;28;20276;-76
2023/10/22 04:38:46;;;;;;;5.65;2.17;;;14.10;99.90;;;;;;5039340;28;20032;-76
2023/10/22 04:41:12;;;;;;;2.83;1.85;;;14.00;99.90;;;;;;5039086;28;20027;-76
2023/10/22 04:43:38;;;;;;;2.45;1.92;;;14.00;99.90;;;;;;5051610;27;20077;-75
2023/10/22 04:46:04;;;;;;;5.00;2.55;;;14.10;99.90;;;;;;5036950;28;20017;-76
2023/10/22 04:48:33;;;;;;;4.20;2.40;;;14.20;99.90;;;;;;5039635;28;20025;-76
2023/10/22 04:51:04;;;;;;;2.95;2.05;;;14.20;99.90;;;;;;5037469;28;20434;-75
2023/10/22 04:53:30;;;;;;;4.63;1.70;;;14.20;99.90;;;;;;5035835;28;20026;-76
2023/10/22 04:55:58;;;;;;;2.72;2.08;;;14.30;99.90;;;;;;5038452;28;20048;-75
2023/10/22 04:58:24;;;;;;;3.92;2.28;;;14.20;99.90;;;;;;5036455;28;20025;-76
2023/10/22 05:00:50;;;;;;;3.05;2.20;;;14.20;99.90;;;;;;5037863;28;20033;-75
2023/10/22 05:03:16;;;;;;;4.85;2.55;;;14.30;99.90;;;;;;5036970;28;20032;-76
2023/10/22 05:05:42;;;;;;;5.38;2.20;;;14.20;99.90;;;;;;5033125;28;20112;-76
2023/10/22 05:08:09;;;;;;;4.00;2.15;;;14.20;99.90;;;;;;5039159;28;20028;-76
2023/10/22 05:10:39;;;;;;;2.50;2.30;;;14.20;99.90;;;;;;5037430;28;20109;-76
2023/10/22 05:13:05;;;;;;;4.07;2.45;;;14.20;99.90;;;;;;5043609;28;20029;-76
2023/10/22 05:15:31;;;;;;;2.30;2.10;;;14.20;99.90;;;;;;5038285;28;20505;-76
2023/10/22 05:17:57;;;;;;;5.85;2.60;;;14.30;99.90;;;;;;5038010;28;20060;-76
2023/10/22 05:20:32;;;;;;;3.70;2.60;;;14.30;99.90;;;;;;5038027;28;20032;-75
2023/10/22 05:22:58;;;;;;;4.85;2.80;;;14.30;99.90;;;;;;5033017;28;20021;-76
2023/10/22 05:25:23;;;;;;;4.63;2.45;;;14.30;99.90;;;;;;5037739;28;20029;-76
2023/10/22 05:27:49;;;;;;;4.53;2.38;;;14.30;99.90;;;;;;5038222;28;20026;-76
2023/10/22 05:30:15;;;;;;;5.82;2.42;;;14.30;99.90;;;;;;5036178;28;20050;-76
2023/10/22 05:32:41;;;;;;;4.28;2.30;;;14.30;99.90;;;;;;5039900;28;20029;-75
2023/10/22 05:35:07;;;;;;;4.18;2.22;;;14.30;99.90;;;;;;5036465;28;20048;-75
2023/10/22 05:37:33;;;;;;;4.93;2.40;;;14.30;99.90;;;;;;5037371;28;20020;-75
2023/10/22 05:39:59;;;;;;;6.55;2.50;;;14.30;99.90;;;;;;5036507;28;20600;-75
2023/10/22 05:42:25;;;;;;;6.65;2.40;;;14.30;99.90;;;;;;5041148;28;20025;-76
2023/10/22 05:44:51;;;;;;;9.55;2.60;;;14.30;99.90;;;;;;5036415;28;20083;-76
2023/10/22 05:47:17;;;;;;;3.00;2.80;;;14.30;99.90;;;;;;5037673;28;20186;-76
2023/10/22 05:49:44;;;;;;;2.88;2.65;;;14.30;99.90;;;;;;5039740;28;20021;-76
2023/10/22 05:52:10;;;;;;;8.68;3.78;;;14.30;99.90;;;;;;5040756;28;20086;-75
2023/10/22 05:54:36;;;;;;;3.67;2.90;;;14.30;99.90;;;;;;5041742;28;20028;-76
2023/10/22 05:57:02;;;;;;;4.18;3.28;;;14.30;99.90;;;;;;5026296;28;20026;-75
2023/10/22 05:59:28;;;;;;;3.40;3.10;;;14.30;99.90;;;;;;5042048;28;20132;-75
2023/10/22 06:01:54;;;;;;;4.72;3.13;;;14.30;99.90;;;;;;5040242;28;20124;-75
2023/10/22 06:04:20;;;;;;;6.10;3.42;;;14.30;99.90;;;;;;5040201;28;20078;-75
2023/10/22 06:06:45;;;;;;;5.20;2.85;;;14.30;99.90;;;;;;5042603;28;20080;-75
2023/10/22 06:09:12;;;;;;;6.88;3.58;;;14.30;99.90;;;;;;5039847;28;20029;-75
2023/10/22 06:11:39;;;;;;;4.43;3.20;;;14.20;99.90;;;;;;5040119;28;20605;-75
2023/10/22 06:14:06;;;;;;;5.88;3.85;;;14.20;99.90;;;;;;5054799;27;20022;-75
2023/10/22 06:16:35;;;;;;;5.93;3.65;;;14.20;99.90;;;;;;5042566;28;20021;-76
2023/10/22 06:19:00;;;;;;;9.65;3.67;;;14.20;99.90;;;;;;5036727;28;20187;-75
2023/10/22 06:21:26;;;;;;;7.55;4.10;;;14.20;99.90;;;;;;5041221;28;20049;-75
2023/10/22 06:23:52;;;;;;;5.50;4.05;;;14.20;99.90;;;;;;5040066;28;20032;-75
2023/10/22 06:26:17;;;;;;;5.55;3.90;;;14.20;99.90;;;;;;5039582;28;20469;-75
2023/10/22 06:28:43;;;;;;;9.63;4.07;;;14.20;99.90;;;;;;5042360;28;20203;-75
2023/10/22 06:31:12;;;;;;;5.70;3.40;;;14.30;99.90;;;;;;5038700;28;20030;-75
2023/10/22 06:33:38;;;;;;;9.73;3.88;;;14.40;99.90;;;;;;5039138;28;20044;-75
2023/10/22 06:36:15;;;;;;;5.55;3.90;;;14.40;99.90;;;;;;5040350;28;20056;-76
2023/10/22 06:38:43;;;;;;;5.47;3.78;;;14.40;99.90;;;;;;5037757;28;20074;-76
2023/10/22 06:41:13;;;;;;;5.43;3.97;;;14.50;99.90;;;;;;5039937;28;20515;-75
2023/10/22 06:43:39;;;;;;;7.03;4.40;;;14.50;99.90;;;;;;5051299;27;20112;-76
2023/10/22 06:46:05;;;;;;;5.40;3.90;;;14.60;99.90;;;;;;5038439;28;20568;-75
2023/10/22 06:48:30;;;;;;;4.90;3.80;;;14.60;99.90;;;;;;5040793;28;20032;-75
2023/10/22 06:50:56;;;;;;;9.73;4.22;;;14.60;99.90;;;;;;5039638;28;20057;-75
2023/10/22 06:53:22;;;;;;;6.07;4.13;;;14.70;99.90;;;;;;5037788;28;20026;-75
2023/10/22 06:55:47;;;;;;;6.63;3.55;;;14.70;99.90;;;;;;5041851;28;20025;-76
2023/10/22 06:58:13;;;;;;;7.05;4.38;;;14.70;99.90;;;;;;5039437;28;20030;-76
2023/10/22 07:00:39;;;;;;;8.10;4.00;;;14.70;99.90;;;;;;5039238;28;20033;-76
2023/10/22 07:03:04;;;;;;;3.55;2.75;;;14.80;99.90;;;;;;5041963;28;20043;-75
2023/10/22 07:05:31;;;;;;;6.28;3.05;;;14.80;99.90;;;;;;5041561;28;20480;-75
2023/10/22 07:07:58;;;;;;;6.88;3.20;;;14.90;99.90;;;;;;5033492;28;20033;-75
2023/10/22 07:10:24;;;;;;;3.90;2.75;;;14.90;99.90;;;;;;5039504;28;20495;-76
2023/10/22 07:12:50;;;;;;;8.82;3.60;;;15.00;99.90;;;;;;5039711;28;20024;-75
2023/10/22 07:15:15;;;;;;;5.57;3.70;;;15.00;99.90;;;;;;5041154;28;20045;-76
2023/10/22 07:17:42;;;;;;;6.82;2.78;;;15.10;99.90;;;;;;5037100;28;20026;-75
2023/10/22 07:20:07;;;;;;;3.60;3.00;;;15.10;99.90;;;;;;5040969;28;20021;-75
2023/10/22 07:22:33;;;;;;;4.20;2.40;;;15.10;99.90;;;;;;5039768;28;20037;-76
2023/10/22 07:24:59;;;;;;;6.55;3.42;;;15.20;99.90;;;;;;5040998;28;20033;-75
2023/10/22 07:27:24;;;;;;;4.40;2.80;;;15.20;99.90;;;;;;5038226;28;20032;-75
2023/10/22 07:29:50;;;;;;;5.80;2.85;;;15.20;99.90;;;;;;5038464;28;20104;-75
2023/10/22 07:32:16;;;;;;;4.63;2.80;;;15.20;99.90;;;;;;5038640;28;20021;-75
2023/10/22 07:34:41;;;;;;;4.47;2.50;;;15.30;99.90;;;;;;5038372;28;20105;-76
2023/10/22 07:37:07;;;;;;;5.75;2.88;;;15.30;99.90;;;;;;5040178;28;20028;-76
2023/10/22 07:39:36;;;;;;;8.95;2.72;;;15.30;99.90;;;;;;5041880;28;20037;-76
2023/10/22 07:42:02;;;;;;;5.18;2.80;;;15.40;99.90;;;;;;5020479;27;20034;-76
2023/10/22 07:44:28;;;;;;;5.13;2.55;;;15.40;99.90;;;;;;5045647;27;20031;-75
2023/10/22 07:46:54;;;;;;;2.85;2.30;;;15.40;99.90;;;;;;5039861;28;20030;-76
2023/10/22 07:49:20;;;;;;;6.65;2.92;;;15.40;99.90;;;;;;5038221;28;20144;-75
2023/10/22 07:51:49;;;;;;;5.00;2.75;;;15.50;99.90;;;;;;5041087;28;20469;-76
2023/10/22 07:54:17;;;;;;;4.15;3.00;;;15.50;99.90;;;;;;5038814;28;20025;-75
2023/10/22 07:56:46;;;;;;;5.28;3.03;;;15.50;99.90;;;;;;5037710;28;20494;-75
2023/10/22 07:59:11;;;;;;;5.88;3.30;;;15.50;99.90;;;;;;5039722;28;20025;-75
2023/10/22 08:01:37;;;;;;;5.72;3.20;;;15.60;99.90;;;;;;5037916;28;20544;-75
2023/10/22 08:04:03;;;;;;;4.35;2.67;;;15.60;99.90;;;;;;5038674;28;20026;-76
2023/10/22 08:06:29;;;;;;;7.32;2.80;;;15.70;99.90;;;;;;5038914;28;20025;-75
2023/10/22 08:08:56;;;;;;;6.80;2.85;;;15.70;99.90;;;;;;5037167;28;20373;-75
2023/10/22 08:11:21;;;;;;;4.18;3.30;;;15.70;99.90;;;;;;5039671;28;20028;-75
2023/10/22 08:13:47;;;;;;;4.10;3.03;;;15.70;99.90;;;;;;5034317;28;20021;-75
2023/10/22 08:16:13;;;;;;;5.55;2.90;;;15.80;99.90;;;;;;5038011;28;20370;-76
2023/10/22 08:18:39;;;;;;;3.30;1.88;;;15.80;99.90;;;;;;5039715;28;20029;-75
2023/10/22 08:21:08;;;;;;;3.88;2.30;;;15.80;99.90;;;;;;5037798;28;20029;-75
2023/10/22 08:23:34;;;;;;;4.22;2.22;;;15.90;99.90;;;;;;5034246;28;20109;-75
2023/10/22 08:26:02;;;;;;;10.70;2.50;;;15.90;99.90;;;;;;5038440;28;20493;-83
2023/10/22 08:28:28;;;;;;;3.95;1.80;;;16.00;99.90;;;;;;5036771;28;20365;-75
2023/10/22 08:30:56;;;;;;;3.63;2.10;;;16.10;99.90;;;;;;5039368;28;20561;-75
2023/10/22 08:33:22;;;;;;;5.15;2.38;;;16.10;99.90;;;;;;5034319;28;20029;-75
2023/10/22 08:35:48;;;;;;;5.50;2.08;;;16.20;99.90;;;;;;5036912;28;20056;-75
2023/10/22 08:38:15;;;;;;;5.47;2.15;;;16.20;99.90;;;;;;5038594;28;20037;-75
2023/10/22 08:40:41;;;;;;;9.95;2.47;;;16.20;99.90;;;;;;5040336;28;20499;-75
2023/10/22 08:43:17;;;;;;;7.75;2.65;;;16.30;99.90;;;;;;5035851;28;20028;-75
2023/10/22 08:45:48;;;;;;;7.68;2.40;;;16.30;99.90;;;;;;5036714;28;20060;-75
2023/10/22 08:48:15;;;;;;;6.33;2.10;;;16.40;99.90;;;;;;5039584;28;20029;-76
2023/10/22 08:50:46;;;;;;;2.97;1.90;;;16.40;99.90;;;;;;5039446;28;20023;-75
2023/10/22 08:53:13;;;;;;;2.95;1.80;;;16.50;92.30;;;;;;5039659;28;20021;-75
2023/10/22 08:55:46;;;;;;;5.15;2.10;;;16.50;93.10;;;;;;5036706;28;20021;-75
2023/10/22 08:58:16;;;;;;;3.78;2.05;;;16.50;91.20;;;;;;5038309;28;20384;-76
2023/10/22 09:00:47;;;;;;;3.50;2.00;;;16.50;99.90;;;;;;5039201;28;20479;-76
2023/10/22 09:03:25;;;;;;;4.55;1.85;;;16.50;99.90;;;;;;5031836;28;20041;-75
2023/10/22 09:05:53;;;;;;;4.40;1.50;;;16.50;99.90;;;;;;5036729;28;20022;-76
2023/10/22 09:08:18;;;;;;;2.80;1.60;;;16.50;94.10;;;;;;5039374;28;20262;-75
2023/10/22 09:10:44;;;;;;;4.45;2.25;;;16.70;50.90;;;;;;5036078;28;20491;-75
2023/10/22 09:13:15;;;;;;;4.75;2.28;;;16.70;56.50;;;;;;5057905;28;20523;-76
2023/10/22 09:15:46;;;;;;;7.82;1.83;;;16.80;72.10;;;;;;5038517;28;20108;-75
2023/10/22 09:18:13;;;;;;;3.25;1.42;;;16.80;63.70;;;;;;5034402;28;20060;-75
2023/10/22 09:20:41;;;;;;;4.85;1.63;;;16.90;68.30;;;;;;5037989;28;20097;-75
2023/10/22 09:23:19;;;;;;;6.47;1.80;;;16.80;61.30;;;;;;5039935;28;20449;-75
2023/10/22 09:25:52;;;;;;;4.95;2.00;;;16.80;40.70;;;;;;5039043;28;20021;-75
2023/10/22 09:28:24;;;;;;;7.50;1.83;;;16.90;56.90;;;;;;5040207;28;20029;-75
2023/10/22 09:31:02;;;;;;;4.28;1.58;;;17.00;69.30;;;;;;5041257;28;20025;-75
2023/10/22 09:33:37;;;;;;;9.80;2.22;;;17.10;74.30;;;;;;5043246;28;20086;-76
2023/10/22 09:36:04;;;;;;;4.88;2.17;;;17.10;69.90;;;;;;5038422;28;20037;-75
2023/10/22 09:38:56;;;;;;;9.23;1.83;;;17.10;57.10;;;;;;5039430;28;20025;-75
2023/10/22 09:41:28;;;;;;;6.20;1.48;;;17.20;12.70;;;;;;5043517;28;20048;-75
2023/10/22 09:44:01;;;;;;;7.35;1.80;;;17.30;17.20;;;;;;5054261;27;20032;-75
2023/10/22 09:46:34;;;;;;;6.32;1.80;;;17.20;45.20;;;;;;5041617;28;20636;-75
2023/10/22 09:49:04;;;;;;;3.78;2.15;;;17.20;46.80;;;;;;5037163;28;20026;-75
2023/10/22 09:51:31;;;;;;;7.68;2.08;;;17.30;28.60;;;;;;5037275;28;20021;-75
2023/10/22 09:54:02;;;;;;;6.30;1.73;;;17.30;37.10;;;;;;5041746;28;20024;-75
2023/10/22 09:56:32;;;;;;;6.93;1.98;;;17.40;19.10;;;;;;5037401;28;20025;-75
2023/10/22 09:59:02;;;;;;;3.70;1.80;;;17.40;9.80;;;;;;5039590;28;20719;-75
2023/10/22 10:01:33;;;;;;;3.10;1.70;;;17.50;1.10;;;;;;5042883;28;20511;-75
2023/10/22 10:04:00;;;;;;;5.45;1.92;;;17.60;12.50;;;;;;5039078;28;20033;-75
2023/10/22 10:06:30;;;;;;;2.17;1.30;;;17.50;17.30;;;;;;5041772;28;20141;-75
2023/10/22 10:08:58;;;;;;;8.88;1.67;;;17.50;26.10;;;;;;5039592;28;20064;-75
2023/10/22 10:11:24;;;;;;;3.58;1.67;;;17.50;14.70;;;;;;5042062;28;20095;-75
2023/10/22 10:13:50;;;;;;;6.50;1.50;;;17.60;1.00;;;;;;5048991;27;20025;-75
2023/10/22 10:16:16;;;;;;;6.60;1.45;;;17.60;20.80;;;;;;5041899;28;20108;-75
2023/10/22 10:19:01;;;;;;;6.80;1.58;;;17.50;1.00;;;;;;5038136;28;20033;-75
2023/10/22 10:21:39;;;;;;;5.22;1.88;;;17.50;1.00;;;;;;5038200;28;20029;-75
2023/10/22 10:24:24;;;;;;;5.75;2.13;;;17.60;6.40;;;;;;5038586;28;20064;-75
2023/10/22 10:26:52;;;;;;;5.28;1.70;;;17.60;2.70;;;;;;5021152;28;20037;-75
2023/10/22 10:29:20;;;;;;;6.05;2.00;;;17.50;17.90;;;;;;5039155;28;20438;-75
2023/10/22 10:31:51;;;;;;;3.13;1.38;;;17.60;18.70;;;;;;5041107;28;20077;-75
2023/10/22 10:34:36;;;;;;;6.70;1.95;;;17.50;27.50;;;;;;5039915;28;20533;-75
2023/10/22 10:37:12;;;;;;;5.90;1.67;;;17.60;25.30;;;;;;5034821;28;20313;-75
2023/10/22 10:39:47;;;;;;;8.65;2.05;;;17.70;14.20;;;;;;5031251;27;20485;-75
2023/10/22 10:42:14;;;;;;;4.95;1.60;;;17.70;8.10;;;;;;5040088;27;20033;-75
2023/10/22 10:44:58;;;;;;;6.00;1.98;;;17.90;12.20;;;;;;5040084;28;20483;-75
2023/10/22 10:47:33;;;;;;;2.42;1.35;;;17.90;4.50;;;;;;5038863;28;20538;-75
2023/10/22 10:50:27;;;;;;;3.40;1.60;;;17.90;22.90;;;;;;5035631;27;20035;-75
2023/10/22 10:52:58;;;;;;;9.43;2.40;;;18.00;10.70;;;;;;5039289;28;20037;-76
2023/10/22 10:55:23;;;;;;;7.65;1.83;;;18.00;28.40;;;;;;5036257;27;20018;-75
2023/10/22 10:57:53;;;;;;;5.55;1.80;;;18.00;22.70;;;;;;5036036;28;20415;-76
2023/10/22 11:00:20;;;;;;;6.45;2.20;;;18.00;20.50;;;;;;5055357;27;20021;-75
2023/10/22 11:02:46;;;;;;;5.93;1.88;;;18.10;18.30;;;;;;5025039;27;20037;-75
2023/10/22 11:05:13;;;;;;;8.27;1.90;;;18.10;3.00;;;;;;5032499;28;20038;-75
2023/10/22 11:07:39;;;;;;;4.93;1.83;;;18.10;1.00;;;;;;5029550;28;20383;-75
2023/10/22 11:10:09;;;;;;;4.18;1.65;;;18.20;1.00;;;;;;5039288;27;20029;-75
2023/10/22 11:12:38;;;;;;;9.68;1.85;;;18.30;1.00;;;;;;5043267;27;20034;-76
2023/10/22 11:15:06;;;;;;;4.88;1.80;;;18.40;1.00;;;;;;5027512;28;20379;-75
2023/10/22 11:17:31;;;;;;;4.53;1.90;;;18.30;1.00;;;;;;5034257;28;20070;-75
2023/10/22 11:19:57;;;;;;;5.55;1.88;;;18.50;1.00;;;;;;5038846;28;20025;-75
2023/10/22 11:22:23;;;;;;;4.90;1.63;;;18.60;1.00;;;;;;5023092;28;20050;-75
2023/10/22 11:24:55;;;;;;;6.97;2.03;;;18.50;1.00;;;;;;5033154;28;20036;-75
2023/10/22 11:27:21;;;;;;;4.63;1.90;;;18.60;1.00;;;;;;5041700;28;20045;-75
2023/10/22 11:29:48;;;;;;;7.90;1.67;;;18.60;1.00;;;;;;5036792;28;20484;-75
2023/10/22 11:32:23;;;;;;;4.88;1.70;;;18.70;1.00;;;;;;5038731;28;20262;-76
2023/10/22 11:34:57;;;;;;;4.28;1.60;;;18.70;99.90;;;;;;5036910;28;20027;-75
2023/10/22 11:37:37;;;;;;;5.07;1.83;;;18.60;99.90;;;;;;5039986;28;20112;-76
2023/10/22 11:40:28;;;;;;;3.33;1.65;;;18.80;1.00;;;;;;5035825;28;20104;-75
2023/10/22 11:42:55;;;;;;;4.05;1.38;;;18.80;1.00;;;;;;5033708;27;20049;-75
2023/10/22 11:45:29;;;;;;;3.30;1.30;;;18.90;1.00;;;;;;5036491;28;20078;-75
2023/10/22 11:48:13;;;;;;;3.60;1.40;;;18.90;1.00;;;;;;5028133;28;20476;-75
2023/10/22 11:50:43;;;;;;;3.78;1.13;;;19.00;99.90;;;;;;5037126;28;20056;-75
2023/10/22 11:53:08;;;;;;;10.85;2.03;;;19.10;99.90;;;;;;5038479;28;20070;-75
2023/10/22 11:55:34;;;;;;;3.10;1.30;;;19.00;99.90;;;;;;5039437;28;20431;-75
2023/10/22 11:58:00;;;;;;;5.28;1.55;;;19.10;99.90;;;;;;5039339;28;20527;-75
2023/10/22 12:00:25;;;;;;;3.88;1.00;;;19.10;1.00;;;;;;5029934;28;20021;-75
2023/10/22 12:02:51;;;;;;;4.82;1.48;;;19.10;99.90;;;;;;5036940;28;20053;-75
2023/10/22 12:05:16;;;;;;;3.05;1.42;;;19.10;99.90;;;;;;5037820;28;20032;-75
2023/10/22 12:07:42;;;;;;;2.97;1.42;;;19.10;99.90;;;;;;5041639;28;20055;-75
2023/10/22 12:10:10;;;;;;;5.18;1.45;;;19.10;99.90;;;;;;5037825;28;20024;-76
2023/10/22 12:12:35;;;;;;;2.65;1.42;;;19.10;99.90;;;;;;5040681;27;20036;-75
2023/10/22 12:15:02;;;;;;;4.90;1.23;;;19.10;99.90;;;;;;5038171;28;20014;-75
2023/10/22 12:17:30;;;;;;;4.70;1.38;;;19.20;99.90;;;;;;5036739;28;20029;-76
2023/10/22 12:19:56;;;;;;;2.95;1.23;;;19.10;99.90;;;;;;5038803;28;20025;-76
2023/10/22 12:22:21;;;;;;;1.98;1.50;;;19.10;99.90;;;;;;5036134;28;20162;-75
2023/10/22 12:24:50;;;;;;;4.72;1.50;;;19.10;99.90;;;;;;5040546;28;20037;-76
2023/10/22 12:27:16;;;;;;;2.67;1.60;;;19.10;99.90;;;;;;5036153;28;20026;-75
2023/10/22 12:29:42;;;;;;;7.63;1.40;;;19.10;99.90;;;;;;5038254;28;20032;-75
2023/10/22 12:32:07;;;;;;;3.40;1.60;;;19.20;99.90;;;;;;5037670;28;20032;-75
2023/10/22 12:34:33;;;;;;;2.92;1.20;;;19.10;99.90;;;;;;5038797;28;20455;-75
2023/10/22 12:36:59;;;;;;;6.50;1.75;;;19.10;99.90;;;;;;5040736;28;20049;-75
2023/10/22 12:39:24;;;;;;;3.40;1.13;;;19.20;99.90;;;;;;5038957;28;20092;-75
2023/10/22 12:41:53;;;;;;;3.45;1.52;;;19.10;99.90;;;;;;5042236;28;20025;-75
2023/10/22 12:44:24;;;;;;;2.85;1.50;;;19.20;99.90;;;;;;5056429;27;20031;-75
2023/10/22 12:46:51;;;;;;;2.03;1.20;;;19.20;99.90;;;;;;5040721;28;20021;-76
2023/10/22 12:49:17;;;;;;;3.83;1.45;;;19.20;99.90;;;;;;5037128;28;20063;-76